sensor_id;sensor_type;location;lat;lon;timestamp;pressure;altitude;pressure_sealevel;temperature;humidity
83095;BME280;72967;43.674;6.976;2023-12-22T00:00:36;95610.09;;;10.45;67.07
83095;BME280;72967;43.674;6.976;2023-12-22T00:03:01;95603.69;;;10.34;67.48
83095;BME280;72967;43.674;6.976;2023-12-22T00:05:27;95628.13;;;10.42;67.33
83095;BME280;72967;43.674;6.976;2023-12-22T00:07:52;95626.56;;;10.41;67.62
83095;BME280;72967;43.674;6.976;2023-12-22T00:10:17;95604.84;;;10.33;67.30
83095;BME280;72967;43.674;6.976;2023-12-22T00:12:43;95601.03;;;10.41;67.69
83095;BME280;72967;43.674;6.976;2023-12-22T00:15:08;95618.34;;;10.45;67.61
83095;BME280;72967;43.674;6.976;2023-12-22T00:17:34;95594.22;;;10.31;68.17
83095;BME280;72967;43.674;6.976;2023-12-22T00:19:59;95612.09;;;10.48;68.83
83095;BME280;72967;43.674;6.976;2023-12-22T00:22:28;95594.31;;;10.38;68.37
83095;BME280;72967;43.674;6.976;2023-12-22T00:24:53;95591.66;;;10.45;67.67
83095;BME280;72967;43.674;6.976;2023-12-22T00:27:19;95577.44;;;10.36;67.04
83095;BME280;72967;43.674;6.976;2023-12-22T00:29:44;95583.03;;;10.47;67.75
83095;BME280;72967;43.674;6.976;2023-12-22T00:32:10;95577.13;;;10.45;67.97
83095;BME280;72967;43.674;6.976;2023-12-22T00:34:35;95576.97;;;10.31;69.30
83095;BME280;72967;43.674;6.976;2023-12-22T00:37:01;95571.94;;;10.36;68.50
83095;BME280;72967;43.674;6.976;2023-12-22T00:39:26;95565.59;;;10.32;68.75
83095;BME280;72967;43.674;6.976;2023-12-22T00:41:52;95568.41;;;10.36;68.71
83095;BME280;72967;43.674;6.976;2023-12-22T00:44:18;95561.22;;;10.28;68.83
83095;BME280;72967;43.674;6.976;2023-12-22T00:46:43;95543.91;;;10.23;68.51
83095;BME280;72967;43.674;6.976;2023-12-22T00:49:08;95537.25;;;10.25;68.05
83095;BME280;72967;43.674;6.976;2023-12-22T00:51:34;95544.25;;;10.18;68.64
83095;BME280;72967;43.674;6.976;2023-12-22T00:53:59;95551.78;;;10.25;67.90
83095;BME280;72967;43.674;6.976;2023-12-22T00:56:25;95559.97;;;9.95;67.84
83095;BME280;72967;43.674;6.976;2023-12-22T00:58:50;95566.75;;;10.01;67.14
83095;BME280;72967;43.674;6.976;2023-12-22T01:01:16;95521.47;;;9.88;67.00
83095;BME280;72967;43.674;6.976;2023-12-22T01:03:41;95543.66;;;10.06;66.62
83095;BME280;72967;43.674;6.976;2023-12-22T01:06:06;95542.75;;;9.95;66.71
83095;BME280;72967;43.674;6.976;2023-12-22T01:08:32;95547.13;;;9.99;66.26
83095;BME280;72967;43.674;6.976;2023-12-22T01:10:57;95538.50;;;10.01;66.09
83095;BME280;72967;43.674;6.976;2023-12-22T01:13:22;95549.94;;;10.06;66.25
83095;BME280;72967;43.674;6.976;2023-12-22T01:15:48;95542.94;;;10.09;66.59
83095;BME280;72967;43.674;6.976;2023-12-22T01:18:13;95558.56;;;10.05;66.81
83095;BME280;72967;43.674;6.976;2023-12-22T01:20:39;95552.69;;;10.06;66.11
83095;BME280;72967;43.674;6.976;2023-12-22T01:23:04;95567.22;;;10.07;65.78
83095;BME280;72967;43.674;6.976;2023-12-22T01:25:30;95571.66;;;10.15;65.84
83095;BME280;72967;43.674;6.976;2023-12-22T01:27:55;95571.88;;;10.03;65.52
83095;BME280;72967;43.674;6.976;2023-12-22T01:30:21;95541.28;;;9.74;64.98
83095;BME280;72967;43.674;6.976;2023-12-22T01:32:46;95583.22;;;10.01;64.08
83095;BME280;72967;43.674;6.976;2023-12-22T01:35:12;95579.31;;;10.02;64.29
83095;BME280;72967;43.674;6.976;2023-12-22T01:37:37;95566.03;;;9.78;61.46
83095;BME280;72967;43.674;6.976;2023-12-22T01:40:03;95582.50;;;9.78;60.13
83095;BME280;72967;43.674;6.976;2023-12-22T01:42:29;95574.75;;;9.57;56.60
83095;BME280;72967;43.674;6.976;2023-12-22T01:44:55;95577.81;;;9.52;56.96
83095;BME280;72967;43.674;6.976;2023-12-22T01:47:20;95564.25;;;9.63;58.51
83095;BME280;72967;43.674;6.976;2023-12-22T01:49:47;95577.09;;;9.59;60.57
83095;BME280;72967;43.674;6.976;2023-12-22T01:52:13;95565.78;;;9.60;60.86
83095;BME280;72967;43.674;6.976;2023-12-22T01:54:39;95540.59;;;9.55;60.18
83095;BME280;72967;43.674;6.976;2023-12-22T01:57:04;95565.72;;;9.57;61.62
83095;BME280;72967;43.674;6.976;2023-12-22T01:59:31;95573.22;;;9.60;60.05
83095;BME280;72967;43.674;6.976;2023-12-22T02:02:01;95564.25;;;9.63;61.41
83095;BME280;72967;43.674;6.976;2023-12-22T02:04:27;95568.50;;;9.60;62.98
83095;BME280;72967;43.674;6.976;2023-12-22T02:06:53;95573.53;;;9.55;66.16
83095;BME280;72967;43.674;6.976;2023-12-22T02:09:18;95572.84;;;9.61;67.33
83095;BME280;72967;43.674;6.976;2023-12-22T02:11:43;95565.03;;;9.63;66.42
83095;BME280;72967;43.674;6.976;2023-12-22T02:14:09;95561.03;;;9.57;68.05
83095;BME280;72967;43.674;6.976;2023-12-22T02:19:45;95521.00;;;9.53;67.98
83095;BME280;72967;43.674;6.976;2023-12-22T02:22:12;95560.47;;;9.74;68.63
83095;BME280;72967;43.674;6.976;2023-12-22T02:24:41;95562.50;;;9.77;68.07
83095;BME280;72967;43.674;6.976;2023-12-22T02:27:31;95571.41;;;9.71;69.87
83095;BME280;72967;43.674;6.976;2023-12-22T02:30:07;95565.50;;;9.69;70.71
83095;BME280;72967;43.674;6.976;2023-12-22T02:32:39;95578.94;;;9.74;71.54
83095;BME280;72967;43.674;6.976;2023-12-22T02:35:11;95587.91;;;9.74;70.03
83095;BME280;72967;43.674;6.976;2023-12-22T02:37:39;95576.03;;;9.63;71.36
83095;BME280;72967;43.674;6.976;2023-12-22T02:40:07;95592.25;;;9.75;70.59
83095;BME280;72967;43.674;6.976;2023-12-22T02:42:34;95589.84;;;9.70;71.23
83095;BME280;72967;43.674;6.976;2023-12-22T02:45:01;95564.50;;;9.54;71.49
83095;BME280;72967;43.674;6.976;2023-12-22T02:47:26;95570.31;;;9.75;70.99
83095;BME280;72967;43.674;6.976;2023-12-22T02:49:55;95573.38;;;9.70;73.48
83095;BME280;72967;43.674;6.976;2023-12-22T02:52:20;95569.78;;;9.66;72.96
83095;BME280;72967;43.674;6.976;2023-12-22T02:54:45;95557.19;;;9.62;73.43
83095;BME280;72967;43.674;6.976;2023-12-22T02:57:12;95546.56;;;9.60;74.18
83095;BME280;72967;43.674;6.976;2023-12-22T02:59:38;95540.34;;;9.63;75.17
83095;BME280;72967;43.674;6.976;2023-12-22T03:02:04;95524.97;;;9.59;75.54
83095;BME280;72967;43.674;6.976;2023-12-22T03:04:29;95566.72;;;9.71;75.45
83095;BME280;72967;43.674;6.976;2023-12-22T03:06:55;95556.59;;;9.75;76.29
83095;BME280;72967;43.674;6.976;2023-12-22T03:09:20;95560.91;;;9.76;75.08
83095;BME280;72967;43.674;6.976;2023-12-22T03:11:47;95577.81;;;9.78;75.88
83095;BME280;72967;43.674;6.976;2023-12-22T03:14:12;95573.47;;;9.77;75.95
83095;BME280;72967;43.674;6.976;2023-12-22T03:16:39;95582.38;;;9.71;77.07
83095;BME280;72967;43.674;6.976;2023-12-22T03:19:04;95564.50;;;9.80;75.71
83095;BME280;72967;43.674;6.976;2023-12-22T03:21:30;95557.06;;;9.81;75.64
83095;BME280;72967;43.674;6.976;2023-12-22T03:23:55;95551.56;;;9.81;76.02
83095;BME280;72967;43.674;6.976;2023-12-22T03:26:21;95558.22;;;9.80;77.16
83095;BME280;72967;43.674;6.976;2023-12-22T03:28:46;95555.44;;;9.76;77.38
83095;BME280;72967;43.674;6.976;2023-12-22T03:31:11;95555.22;;;9.89;76.85
83095;BME280;72967;43.674;6.976;2023-12-22T03:33:37;95564.63;;;9.91;77.61
83095;BME280;72967;43.674;6.976;2023-12-22T03:36:02;95555.34;;;9.99;76.85
83095;BME280;72967;43.674;6.976;2023-12-22T03:38:28;95544.78;;;10.01;76.51
83095;BME280;72967;43.674;6.976;2023-12-22T03:40:53;95565.22;;;10.04;75.43
83095;BME280;72967;43.674;6.976;2023-12-22T03:43:19;95558.81;;;9.96;76.36
83095;BME280;72967;43.674;6.976;2023-12-22T03:45:44;95574.16;;;9.97;77.13
83095;BME280;72967;43.674;6.976;2023-12-22T03:48:10;95562.69;;;9.92;77.35
83095;BME280;72967;43.674;6.976;2023-12-22T03:50:35;95553.72;;;9.95;76.41
83095;BME280;72967;43.674;6.976;2023-12-22T03:53:00;95556.91;;;10.00;76.18
83095;BME280;72967;43.674;6.976;2023-12-22T03:55:26;95546.91;;;9.85;77.41
83095;BME280;72967;43.674;6.976;2023-12-22T03:57:51;95563.19;;;10.01;76.32
83095;BME280;72967;43.674;6.976;2023-12-22T04:00:17;95550.91;;;9.91;77.49
83095;BME280;72967;43.674;6.976;2023-12-22T04:02:42;95544.22;;;9.89;78.80
83095;BME280;72967;43.674;6.976;2023-12-22T04:05:11;95539.91;;;9.88;78.97
83095;BME280;72967;43.674;6.976;2023-12-22T04:07:36;95536.53;;;10.01;78.96
83095;BME280;72967;43.674;6.976;2023-12-22T04:10:02;95537.63;;;9.93;80.24
83095;BME280;72967;43.674;6.976;2023-12-22T04:12:27;95529.06;;;9.98;78.16
83095;BME280;72967;43.674;6.976;2023-12-22T04:14:52;95551.53;;;10.07;78.01
83095;BME280;72967;43.674;6.976;2023-12-22T04:17:19;95523.75;;;9.82;77.82
83095;BME280;72967;43.674;6.976;2023-12-22T04:19:44;95545.06;;;9.93;77.18
83095;BME280;72967;43.674;6.976;2023-12-22T04:22:09;95552.03;;;9.87;77.32
83095;BME280;72967;43.674;6.976;2023-12-22T04:24:35;95544.09;;;9.78;77.31
83095;BME280;72967;43.674;6.976;2023-12-22T04:27:00;95556.69;;;9.82;76.94
83095;BME280;72967;43.674;6.976;2023-12-22T04:29:26;95548.81;;;9.81;76.48
83095;BME280;72967;43.674;6.976;2023-12-22T04:31:51;95543.66;;;9.76;77.19
83095;BME280;72967;43.674;6.976;2023-12-22T04:34:16;95537.22;;;9.65;76.80
83095;BME280;72967;43.674;6.976;2023-12-22T04:36:42;95552.00;;;9.83;76.60
83095;BME280;72967;43.674;6.976;2023-12-22T04:39:08;95541.97;;;9.68;76.02
83095;BME280;72967;43.674;6.976;2023-12-22T04:41:33;95513.50;;;9.50;75.97
83095;BME280;72967;43.674;6.976;2023-12-22T04:43:58;95518.47;;;9.70;74.70
83095;BME280;72967;43.674;6.976;2023-12-22T04:46:31;95521.59;;;9.69;74.09
83095;BME280;72967;43.674;6.976;2023-12-22T04:48:56;95514.59;;;9.71;73.79
83095;BME280;72967;43.674;6.976;2023-12-22T04:51:22;95533.94;;;9.82;74.33
83095;BME280;72967;43.674;6.976;2023-12-22T04:53:47;95533.94;;;9.82;74.11
83095;BME280;72967;43.674;6.976;2023-12-22T04:56:12;95510.31;;;9.74;74.42
83095;BME280;72967;43.674;6.976;2023-12-22T04:58:38;95536.72;;;9.86;74.36
83095;BME280;72967;43.674;6.976;2023-12-22T05:01:03;95519.06;;;9.83;74.45
83095;BME280;72967;43.674;6.976;2023-12-22T05:03:29;95515.16;;;9.84;73.72
83095;BME280;72967;43.674;6.976;2023-12-22T05:05:54;95511.56;;;9.80;74.47
83095;BME280;72967;43.674;6.976;2023-12-22T05:08:19;95505.69;;;9.81;73.77
83095;BME280;72967;43.674;6.976;2023-12-22T05:10:45;95525.53;;;9.98;75.17
83095;BME280;72967;43.674;6.976;2023-12-22T05:13:10;95518.41;;;9.93;75.79
83095;BME280;72967;43.674;6.976;2023-12-22T05:15:36;95528.69;;;10.00;74.87
83095;BME280;72967;43.674;6.976;2023-12-22T05:18:01;95492.34;;;9.80;76.07
83095;BME280;72967;43.674;6.976;2023-12-22T05:20:27;95492.34;;;9.80;76.70
83095;BME280;72967;43.674;6.976;2023-12-22T05:22:52;95505.09;;;9.95;75.88
83095;BME280;72967;43.674;6.976;2023-12-22T05:25:17;95509.03;;;9.98;78.22
83095;BME280;72967;43.674;6.976;2023-12-22T05:27:43;95519.28;;;9.71;74.73
83095;BME280;72967;43.674;6.976;2023-12-22T05:30:09;95480.84;;;9.41;75.21
83095;BME280;72967;43.674;6.976;2023-12-22T05:32:35;95501.88;;;9.60;73.70
83095;BME280;72967;43.674;6.976;2023-12-22T05:35:00;95494.59;;;9.45;73.88
83095;BME280;72967;43.674;6.976;2023-12-22T05:37:25;95505.84;;;9.36;75.40
83095;BME280;72967;43.674;6.976;2023-12-22T05:39:51;95488.66;;;9.39;76.14
83095;BME280;72967;43.674;6.976;2023-12-22T05:42:16;95509.78;;;9.65;76.36
83095;BME280;72967;43.674;6.976;2023-12-22T05:44:42;95513.09;;;9.77;77.34
83095;BME280;72967;43.674;6.976;2023-12-22T05:47:08;95468.94;;;9.60;77.97
83095;BME280;72967;43.674;6.976;2023-12-22T05:49:33;95495.47;;;9.78;78.05
83095;BME280;72967;43.674;6.976;2023-12-22T05:51:59;95506.13;;;9.84;77.45
83095;BME280;72967;43.674;6.976;2023-12-22T05:54:24;95504.50;;;9.79;77.04
83095;BME280;72967;43.674;6.976;2023-12-22T05:56:51;95511.09;;;9.74;75.23
83095;BME280;72967;43.674;6.976;2023-12-22T05:59:17;95515.88;;;9.81;75.38
83095;BME280;72967;43.674;6.976;2023-12-22T06:01:43;95521.16;;;9.93;75.03
83095;BME280;72967;43.674;6.976;2023-12-22T06:04:09;95525.47;;;9.94;75.65
83095;BME280;72967;43.674;6.976;2023-12-22T06:06:36;95493.53;;;9.79;74.28
83095;BME280;72967;43.674;6.976;2023-12-22T06:09:03;95521.19;;;9.97;76.84
83095;BME280;72967;43.674;6.976;2023-12-22T06:11:28;95515.38;;;10.02;76.22
83095;BME280;72967;43.674;6.976;2023-12-22T06:13:54;95524.75;;;10.01;76.41
83095;BME280;72967;43.674;6.976;2023-12-22T06:16:19;95522.03;;;10.01;75.28
83095;BME280;72967;43.674;6.976;2023-12-22T06:18:45;95507.34;;;9.90;76.08
83095;BME280;72967;43.674;6.976;2023-12-22T06:21:11;95539.38;;;10.08;74.67
83095;BME280;72967;43.674;6.976;2023-12-22T06:23:36;95523.59;;;10.02;74.73
83095;BME280;72967;43.674;6.976;2023-12-22T06:26:08;95547.72;;;10.15;74.07
83095;BME280;72967;43.674;6.976;2023-12-22T06:28:33;95542.22;;;10.15;74.55
83095;BME280;72967;43.674;6.976;2023-12-22T06:31:01;95565.13;;;9.97;75.04
83095;BME280;72967;43.674;6.976;2023-12-22T06:33:26;95537.00;;;9.77;74.64
83095;BME280;72967;43.674;6.976;2023-12-22T06:35:52;95540.59;;;9.81;72.78
83095;BME280;72967;43.674;6.976;2023-12-22T06:38:19;95535.03;;;9.74;72.83
83095;BME280;72967;43.674;6.976;2023-12-22T06:40:44;95551.41;;;9.70;73.43
83095;BME280;72967;43.674;6.976;2023-12-22T06:43:11;95544.13;;;9.81;71.58
83095;BME280;72967;43.674;6.976;2023-12-22T06:45:37;95552.22;;;10.01;68.33
83095;BME280;72967;43.674;6.976;2023-12-22T06:48:02;95561.81;;;10.14;58.96
83095;BME280;72967;43.674;6.976;2023-12-22T06:50:28;95556.69;;;10.42;60.74
83095;BME280;72967;43.674;6.976;2023-12-22T06:52:53;95532.75;;;10.43;57.69
83095;BME280;72967;43.674;6.976;2023-12-22T06:55:19;95576.13;;;10.60;57.39
83095;BME280;72967;43.674;6.976;2023-12-22T06:57:44;95571.16;;;10.73;57.64
83095;BME280;72967;43.674;6.976;2023-12-22T07:00:10;95572.63;;;10.63;57.96
83095;BME280;72967;43.674;6.976;2023-12-22T07:02:35;95590.78;;;10.71;58.95
83095;BME280;72967;43.674;6.976;2023-12-22T07:05:02;95580.13;;;10.66;59.98
83095;BME280;72967;43.674;6.976;2023-12-22T07:07:30;95575.22;;;10.49;60.14
83095;BME280;72967;43.674;6.976;2023-12-22T07:09:55;95586.44;;;10.67;59.11
83095;BME280;72967;43.674;6.976;2023-12-22T07:12:20;95580.03;;;10.59;59.44
83095;BME280;72967;43.674;6.976;2023-12-22T07:14:46;95588.72;;;10.61;56.93
83095;BME280;72967;43.674;6.976;2023-12-22T07:17:11;95609.59;;;10.69;56.62
83095;BME280;72967;43.674;6.976;2023-12-22T07:19:37;95591.63;;;10.75;57.46
83095;BME280;72967;43.674;6.976;2023-12-22T07:22:02;95601.38;;;10.73;57.06
83095;BME280;72967;43.674;6.976;2023-12-22T07:24:29;95601.44;;;10.76;58.89
83095;BME280;72967;43.674;6.976;2023-12-22T07:26:55;95597.88;;;10.72;57.55
83095;BME280;72967;43.674;6.976;2023-12-22T07:29:20;95625.44;;;10.79;59.49
83095;BME280;72967;43.674;6.976;2023-12-22T07:31:45;95616.03;;;10.80;60.93
83095;BME280;72967;43.674;6.976;2023-12-22T07:34:11;95645.22;;;10.92;61.38
83095;BME280;72967;43.674;6.976;2023-12-22T07:36:36;95635.34;;;10.87;65.24
83095;BME280;72967;43.674;6.976;2023-12-22T07:39:02;95646.38;;;10.91;66.97
83095;BME280;72967;43.674;6.976;2023-12-22T07:41:28;95641.31;;;10.93;66.27
83095;BME280;72967;43.674;6.976;2023-12-22T07:43:53;95646.75;;;10.89;65.40
83095;BME280;72967;43.674;6.976;2023-12-22T07:46:19;95639.50;;;10.74;61.38
83095;BME280;72967;43.674;6.976;2023-12-22T07:48:46;95627.25;;;10.68;59.08
83095;BME280;72967;43.674;6.976;2023-12-22T07:51:11;95635.16;;;10.73;58.54
83095;BME280;72967;43.674;6.976;2023-12-22T07:53:37;95628.53;;;10.78;58.98
83095;BME280;72967;43.674;6.976;2023-12-22T07:56:04;95608.69;;;10.58;57.88
83095;BME280;72967;43.674;6.976;2023-12-22T07:58:32;95645.44;;;10.76;55.89
83095;BME280;72967;43.674;6.976;2023-12-22T08:00:58;95640.88;;;10.91;55.54
83095;BME280;72967;43.674;6.976;2023-12-22T08:03:23;95640.75;;;11.14;53.29
83095;BME280;72967;43.674;6.976;2023-12-22T08:05:49;95649.16;;;11.31;53.48
83095;BME280;72967;43.674;6.976;2023-12-22T08:08:14;95642.22;;;11.44;49.68
83095;BME280;72967;43.674;6.976;2023-12-22T08:10:41;95660.47;;;11.63;54.25
83095;BME280;72967;43.674;6.976;2023-12-22T08:13:06;95677.44;;;11.72;54.25
83095;BME280;72967;43.674;6.976;2023-12-22T08:15:31;95662.28;;;11.89;48.04
83095;BME280;72967;43.674;6.976;2023-12-22T08:17:57;95663.97;;;12.04;45.85
83095;BME280;72967;43.674;6.976;2023-12-22T08:20:22;95665.66;;;12.19;44.97
83095;BME280;72967;43.674;6.976;2023-12-22T08:22:49;95661.00;;;12.30;46.02
83095;BME280;72967;43.674;6.976;2023-12-22T08:25:15;95676.00;;;12.40;45.73
83095;BME280;72967;43.674;6.976;2023-12-22T08:27:41;95685.50;;;12.50;46.46
83095;BME280;72967;43.674;6.976;2023-12-22T08:30:08;95686.34;;;12.54;43.89
83095;BME280;72967;43.674;6.976;2023-12-22T08:32:34;95684.81;;;12.63;44.32
83095;BME280;72967;43.674;6.976;2023-12-22T08:34:59;95699.03;;;12.72;45.21
83095;BME280;72967;43.674;6.976;2023-12-22T08:37:25;95689.56;;;12.70;44.10
83095;BME280;72967;43.674;6.976;2023-12-22T08:39:50;95699.50;;;12.89;43.36
83095;BME280;72967;43.674;6.976;2023-12-22T08:42:17;95696.72;;;12.82;44.21
83095;BME280;72967;43.674;6.976;2023-12-22T08:44:42;95696.38;;;12.94;42.55
83095;BME280;72967;43.674;6.976;2023-12-22T08:47:08;95705.53;;;13.12;43.13
83095;BME280;72967;43.674;6.976;2023-12-22T08:49:33;95702.03;;;13.22;48.90
83095;BME280;72967;43.674;6.976;2023-12-22T08:51:58;95707.97;;;13.24;46.84
83095;BME280;72967;43.674;6.976;2023-12-22T08:54:24;95705.16;;;13.17;46.50
83095;BME280;72967;43.674;6.976;2023-12-22T08:56:49;95715.47;;;13.34;46.10
83095;BME280;72967;43.674;6.976;2023-12-22T08:59:14;95707.59;;;13.29;43.76
83095;BME280;72967;43.674;6.976;2023-12-22T09:01:40;95720.63;;;13.43;43.22
83095;BME280;72967;43.674;6.976;2023-12-22T09:04:10;95729.69;;;13.43;44.04
83095;BME280;72967;43.674;6.976;2023-12-22T09:06:36;95732.09;;;13.48;50.14
83095;BME280;72967;43.674;6.976;2023-12-22T09:09:01;95734.03;;;13.48;50.62
83095;BME280;72967;43.674;6.976;2023-12-22T09:11:28;95739.97;;;13.46;51.86
83095;BME280;72967;43.674;6.976;2023-12-22T09:13:54;95740.41;;;13.52;51.74
83095;BME280;72967;43.674;6.976;2023-12-22T09:16:23;95737.63;;;13.52;52.35
83095;BME280;72967;43.674;6.976;2023-12-22T09:18:50;95747.50;;;13.56;52.56
83095;BME280;72967;43.674;6.976;2023-12-22T09:21:15;95761.31;;;13.60;51.92
83095;BME280;72967;43.674;6.976;2023-12-22T09:23:46;95762.88;;;13.57;52.24
83095;BME280;72967;43.674;6.976;2023-12-22T09:26:14;95765.66;;;13.68;52.47
83095;BME280;72967;43.674;6.976;2023-12-22T09:28:40;95770.44;;;13.82;51.59
83095;BME280;72967;43.674;6.976;2023-12-22T09:31:08;95755.03;;;13.81;49.26
83095;BME280;72967;43.674;6.976;2023-12-22T09:33:35;95765.34;;;14.05;46.04
83095;BME280;72967;43.674;6.976;2023-12-22T09:36:00;95752.31;;;14.13;48.30
83095;BME280;72967;43.674;6.976;2023-12-22T09:38:25;95776.44;;;14.37;50.73
83095;BME280;72967;43.674;6.976;2023-12-22T09:40:51;95770.53;;;14.38;50.54
83095;BME280;72967;43.674;6.976;2023-12-22T09:43:19;95762.22;;;14.38;50.79
83095;BME280;72967;43.674;6.976;2023-12-22T09:45:48;95766.56;;;14.43;49.77
83095;BME280;72967;43.674;6.976;2023-12-22T09:48:15;95760.63;;;14.52;47.98
83095;BME280;72967;43.674;6.976;2023-12-22T09:50:46;95773.69;;;14.65;47.60
83095;BME280;72967;43.674;6.976;2023-12-22T09:53:14;95771.69;;;14.66;48.52
83095;BME280;72967;43.674;6.976;2023-12-22T09:55:45;95761.81;;;14.68;49.27
83095;BME280;72967;43.674;6.976;2023-12-22T09:58:14;95787.47;;;14.72;49.30
83095;BME280;72967;43.674;6.976;2023-12-22T10:00:42;95779.19;;;14.62;49.16
83095;BME280;72967;43.674;6.976;2023-12-22T10:03:09;95791.44;;;14.68;48.18
83095;BME280;72967;43.674;6.976;2023-12-22T10:05:35;95781.19;;;14.75;46.63
83095;BME280;72967;43.674;6.976;2023-12-22T10:08:02;95781.53;;;14.92;44.27
83095;BME280;72967;43.674;6.976;2023-12-22T10:10:32;95781.91;;;15.04;40.12
83095;BME280;72967;43.674;6.976;2023-12-22T10:12:59;95774.75;;;15.10;40.10
83095;BME280;72967;43.674;6.976;2023-12-22T10:15:24;95780.25;;;15.24;37.38
83095;BME280;72967;43.674;6.976;2023-12-22T10:17:52;95782.56;;;15.44;34.67
83095;BME280;72967;43.674;6.976;2023-12-22T10:20:18;95763.50;;;15.60;35.75
83095;BME280;72967;43.674;6.976;2023-12-22T10:22:43;95769.44;;;15.69;35.05
83095;BME280;72967;43.674;6.976;2023-12-22T10:25:09;95770.16;;;15.80;35.17
83095;BME280;72967;43.674;6.976;2023-12-22T10:27:37;95762.97;;;15.86;36.91
83095;BME280;72967;43.674;6.976;2023-12-22T10:30:03;95766.50;;;15.94;37.05
83095;BME280;72967;43.674;6.976;2023-12-22T10:32:29;95770.38;;;16.07;36.55
83095;BME280;72967;43.674;6.976;2023-12-22T10:34:55;95763.59;;;16.11;36.89
83095;BME280;72967;43.674;6.976;2023-12-22T10:37:23;95757.69;;;16.09;36.17
83095;BME280;72967;43.674;6.976;2023-12-22T10:39:55;95753.72;;;16.07;35.46
83095;BME280;72967;43.674;6.976;2023-12-22T10:42:20;95727.66;;;15.97;40.82
83095;BME280;72967;43.674;6.976;2023-12-22T10:44:46;95765.53;;;16.18;42.25
83095;BME280;72967;43.674;6.976;2023-12-22T10:47:13;95728.06;;;15.99;42.31
83095;BME280;72967;43.674;6.976;2023-12-22T10:49:39;95747.03;;;16.04;42.85
83095;BME280;72967;43.674;6.976;2023-12-22T10:52:04;95739.94;;;16.00;43.67
83095;BME280;72967;43.674;6.976;2023-12-22T10:54:30;95758.50;;;16.06;44.62
83095;BME280;72967;43.674;6.976;2023-12-22T10:56:59;95749.81;;;16.04;45.34
83095;BME280;72967;43.674;6.976;2023-12-22T10:59:28;95749.44;;;15.99;43.25
83095;BME280;72967;43.674;6.976;2023-12-22T11:01:57;95743.88;;;16.06;43.04
83095;BME280;72967;43.674;6.976;2023-12-22T11:04:28;95748.97;;;16.07;42.85
83095;BME280;72967;43.674;6.976;2023-12-22T11:06:57;95746.97;;;16.11;41.44
83095;BME280;72967;43.674;6.976;2023-12-22T11:11:46;95739.78;;;16.17;40.35
83095;BME280;72967;43.674;6.976;2023-12-22T11:14:12;95741.38;;;16.19;40.13
83095;BME280;72967;43.674;6.976;2023-12-22T11:16:41;95683.38;;;15.87;40.34
83095;BME280;72967;43.674;6.976;2023-12-22T11:19:13;95690.00;;;16.03;42.17
83095;BME280;72967;43.674;6.976;2023-12-22T11:21:40;95726.94;;;16.38;40.35
83095;BME280;72967;43.674;6.976;2023-12-22T11:24:06;95731.28;;;16.42;39.69
83095;BME280;72967;43.674;6.976;2023-12-22T11:26:32;95713.88;;;16.38;39.08
83095;BME280;72967;43.674;6.976;2023-12-22T11:28:59;95730.03;;;16.50;38.87
83095;BME280;72967;43.674;6.976;2023-12-22T11:31:26;95735.13;;;16.55;39.14
83095;BME280;72967;43.674;6.976;2023-12-22T11:33:54;95723.63;;;16.53;43.04
83095;BME280;72967;43.674;6.976;2023-12-22T11:36:22;95714.22;;;16.47;40.74
83095;BME280;72967;43.674;6.976;2023-12-22T11:38:48;95720.50;;;16.51;38.83
83095;BME280;72967;43.674;6.976;2023-12-22T11:41:18;95714.16;;;16.51;38.73
83095;BME280;72967;43.674;6.976;2023-12-22T11:43:45;95704.31;;;16.43;37.97
83095;BME280;72967;43.674;6.976;2023-12-22T11:46:11;95713.41;;;16.47;38.16
83095;BME280;72967;43.674;6.976;2023-12-22T11:48:37;95711.09;;;16.42;38.04
83095;BME280;72967;43.674;6.976;2023-12-22T11:51:15;95718.84;;;16.61;37.57
83095;BME280;72967;43.674;6.976;2023-12-22T11:53:40;95719.19;;;16.67;36.84
83095;BME280;72967;43.674;6.976;2023-12-22T11:56:07;95715.13;;;16.78;36.86
83095;BME280;72967;43.674;6.976;2023-12-22T11:58:42;95714.69;;;16.80;37.71
83095;BME280;72967;43.674;6.976;2023-12-22T12:01:12;95713.56;;;16.74;37.86
83095;BME280;72967;43.674;6.976;2023-12-22T12:03:41;95713.56;;;16.74;37.97
83095;BME280;72967;43.674;6.976;2023-12-22T12:06:11;95700.03;;;16.79;38.24
83095;BME280;72967;43.674;6.976;2023-12-22T12:08:39;95680.63;;;16.76;37.98
83095;BME280;72967;43.674;6.976;2023-12-22T12:11:05;95686.16;;;16.79;37.47
83095;BME280;72967;43.674;6.976;2023-12-22T12:13:32;95691.13;;;16.95;37.10
83095;BME280;72967;43.674;6.976;2023-12-22T12:15:59;95691.44;;;17.04;37.91
83095;BME280;72967;43.674;6.976;2023-12-22T12:18:31;95671.78;;;16.88;36.91
83095;BME280;72967;43.674;6.976;2023-12-22T12:20:57;95680.69;;;17.06;34.20
83095;BME280;72967;43.674;6.976;2023-12-22T12:23:23;95690.53;;;17.14;31.47
83095;BME280;72967;43.674;6.976;2023-12-22T12:25:49;95666.84;;;17.03;33.86
83095;BME280;72967;43.674;6.976;2023-12-22T12:28:15;95685.19;;;17.27;35.22
83095;BME280;72967;43.674;6.976;2023-12-22T12:30:43;95675.34;;;17.22;35.88
83095;BME280;72967;43.674;6.976;2023-12-22T12:33:10;95690.81;;;17.23;38.85
83095;BME280;72967;43.674;6.976;2023-12-22T12:35:37;95690.41;;;17.21;44.57
83095;BME280;72967;43.674;6.976;2023-12-22T12:38:04;95689.84;;;17.03;46.77
83095;BME280;72967;43.674;6.976;2023-12-22T12:40:30;95661.53;;;16.81;47.05
83095;BME280;72967;43.674;6.976;2023-12-22T12:42:58;95682.91;;;16.84;47.99
83095;BME280;72967;43.674;6.976;2023-12-22T12:45:24;95649.44;;;16.65;48.64
83095;BME280;72967;43.674;6.976;2023-12-22T12:47:57;95652.28;;;16.57;48.72
83095;BME280;72967;43.674;6.976;2023-12-22T12:50:26;95682.56;;;16.82;47.07
83095;BME280;72967;43.674;6.976;2023-12-22T12:52:52;95676.56;;;16.87;45.62
83095;BME280;72967;43.674;6.976;2023-12-22T12:55:22;95663.47;;;16.84;45.49
83095;BME280;72967;43.674;6.976;2023-12-22T12:57:51;95666.25;;;16.88;45.45
83095;BME280;72967;43.674;6.976;2023-12-22T13:00:24;95661.13;;;16.83;45.94
83095;BME280;72967;43.674;6.976;2023-12-22T13:02:50;95664.28;;;16.85;45.26
83095;BME280;72967;43.674;6.976;2023-12-22T13:05:23;95655.19;;;16.81;45.08